KINS/INS METAR and TAF weather

Enter ICAO airport designator
Station Type Date Time Source
KINS METAR 2019/04/25 00:58 UTC NOAA

KINS 250058Z AUTO 00000KT 10SM CLR 30/M02 A2991 RMK AO2 SLP090 T03031023 $


Station Type Date Time Source
KINS Decoded METAR 2019/04/25 00:58 UTC NOAA

Indian Springs, Indian Springs Auxiliary AFLD Nellis AFB, NV, United States (KINS) 36-35N 115-40W
Apr 24, 2019 - 08:58 PM EDT / 2019.04.25 0058 UTC
Wind: Calm:0
Visibility: 10 mile(s):0
Sky conditions: clear
Temperature: 86.5 F (30.3 C)
Dew Point: 27.9 F (-2.3 C)
Relative Humidity: 11%
Pressure (altimeter): 29.91 in. Hg (1012 hPa)
ob: KINS 250058Z AUTO 00000KT 10SM CLR 30/M02 A2991 RMK AO2 SLP090 T03031023
cycle: 1

Station Type Date Time Source
KINS TAF 2019/04/24 21:03 UTC NOAA

TAF TAF KINS 242059Z 2421/2603 VRB06KT 9999 SKC QNH2990INS
BECMG 2422/2423 32009KT 9999 SKC QNH2989INS
BECMG 2502/2503 VRB06KT 9999 FEW120 QNH2990INS
BECMG 2520/2521 22012KT 9999 SCT120 QNH2987INS TX32/2521Z TN14/2512Z

Example: see airport list